sensor_id;sensor_type;location;lat;lon;timestamp;temperature;humidity
23347;DHT22;36852;45.466;11.066;2024-03-29T03:36:08;7.60;99.90
23347;DHT22;36852;45.466;11.066;2024-03-29T03:38:44;7.70;99.90
23347;DHT22;36852;45.466;11.066;2024-03-29T03:41:35;7.80;99.90
23347;DHT22;36852;45.466;11.066;2024-03-29T03:44:25;7.80;99.90
23347;DHT22;36852;45.466;11.066;2024-03-29T03:47:19;7.80;99.90
23347;DHT22;36852;45.466;11.066;2024-03-29T03:50:14;7.80;99.90
23347;DHT22;36852;45.466;11.066;2024-03-29T03:53:15;7.90;99.90
23347;DHT22;36852;45.466;11.066;2024-03-29T03:56:13;7.90;99.90
23347;DHT22;36852;45.466;11.066;2024-03-29T03:58:46;8.00;99.90
23347;DHT22;36852;45.466;11.066;2024-03-29T04:01:37;8.00;99.90
23347;DHT22;36852;45.466;11.066;2024-03-29T04:04:29;8.10;99.90
23347;DHT22;36852;45.466;11.066;2024-03-29T04:07:19;8.20;99.90
23347;DHT22;36852;45.466;11.066;2024-03-29T04:09:57;8.20;99.90
23347;DHT22;36852;45.466;11.066;2024-03-29T04:12:45;8.20;99.90
23347;DHT22;36852;45.466;11.066;2024-03-29T04:15:33;8.30;99.90
23347;DHT22;36852;45.466;11.066;2024-03-29T04:18:27;8.30;99.90
23347;DHT22;36852;45.466;11.066;2024-03-29T04:21:16;8.30;99.90
23347;DHT22;36852;45.466;11.066;2024-03-29T04:24:09;8.40;99.90
23347;DHT22;36852;45.466;11.066;2024-03-29T04:26:56;8.40;99.90
23347;DHT22;36852;45.466;11.066;2024-03-29T04:29:45;8.40;99.90
23347;DHT22;36852;45.466;11.066;2024-03-29T04:32:22;8.40;99.90
23347;DHT22;36852;45.466;11.066;2024-03-29T04:35:17;8.40;99.90
23347;DHT22;36852;45.466;11.066;2024-03-29T04:38:06;8.40;99.90
23347;DHT22;36852;45.466;11.066;2024-03-29T04:40:53;8.40;99.90
23347;DHT22;36852;45.466;11.066;2024-03-29T04:43:27;8.30;99.90
23347;DHT22;36852;45.466;11.066;2024-03-29T04:46:10;8.40;99.90
23347;DHT22;36852;45.466;11.066;2024-03-29T04:48:47;8.30;99.90
23347;DHT22;36852;45.466;11.066;2024-03-29T04:51:44;8.40;99.90
23347;DHT22;36852;45.466;11.066;2024-03-29T04:54:33;8.40;99.90
23347;DHT22;36852;45.466;11.066;2024-03-29T04:57:25;8.40;99.90
23347;DHT22;36852;45.466;11.066;2024-03-29T05:00:21;8.40;99.90
23347;DHT22;36852;45.466;11.066;2024-03-29T05:03:16;8.50;99.90
23347;DHT22;36852;45.466;11.066;2024-03-29T05:06:07;8.40;99.90
23347;DHT22;36852;45.466;11.066;2024-03-29T05:08:47;8.30;99.90
23347;DHT22;36852;45.466;11.066;2024-03-29T05:11:41;8.20;99.90
23347;DHT22;36852;45.466;11.066;2024-03-29T05:14:34;8.20;99.90
23347;DHT22;36852;45.466;11.066;2024-03-29T05:17:29;8.30;99.90
23347;DHT22;36852;45.466;11.066;2024-03-29T05:20:22;8.30;99.90
23347;DHT22;36852;45.466;11.066;2024-03-29T05:23:13;8.40;99.90
23347;DHT22;36852;45.466;11.066;2024-03-29T05:26:06;8.30;99.90
23347;DHT22;36852;45.466;11.066;2024-03-29T05:28:51;8.40;99.90
23347;DHT22;36852;45.466;11.066;2024-03-29T05:31:44;8.50;99.90
23347;DHT22;36852;45.466;11.066;2024-03-29T05:34:39;8.60;99.90
23347;DHT22;36852;45.466;11.066;2024-03-29T05:37:29;8.70;99.90
23347;DHT22;36852;45.466;11.066;2024-03-29T05:40:19;8.70;99.90
23347;DHT22;36852;45.466;11.066;2024-03-29T05:43:14;8.70;99.90
23347;DHT22;36852;45.466;11.066;2024-03-29T05:46:19;8.70;99.90
23347;DHT22;36852;45.466;11.066;2024-03-29T05:49:18;8.80;99.90
23347;DHT22;36852;45.466;11.066;2024-03-29T05:52:09;8.90;99.90
23347;DHT22;36852;45.466;11.066;2024-03-29T05:55:01;8.90;99.90
23347;DHT22;36852;45.466;11.066;2024-03-29T05:58:04;8.90;99.90
23347;DHT22;36852;45.466;11.066;2024-03-29T06:01:05;8.90;99.90
23347;DHT22;36852;45.466;11.066;2024-03-29T06:04:04;9.00;99.90
23347;DHT22;36852;45.466;11.066;2024-03-29T06:07:10;9.00;99.90
23347;DHT22;36852;45.466;11.066;2024-03-29T06:10:14;9.10;99.90
23347;DHT22;36852;45.466;11.066;2024-03-29T06:13:17;9.20;99.90
23347;DHT22;36852;45.466;11.066;2024-03-29T06:16:28;9.30;99.90
23347;DHT22;36852;45.466;11.066;2024-03-29T06:19:45;9.30;99.90
23347;DHT22;36852;45.466;11.066;2024-03-29T06:22:42;9.30;99.90
23347;DHT22;36852;45.466;11.066;2024-03-29T06:25:36;9.20;99.90
23347;DHT22;36852;45.466;11.066;2024-03-29T06:28:05;9.10;99.90
23347;DHT22;36852;45.466;11.066;2024-03-29T06:30:33;9.10;99.90
23347;DHT22;36852;45.466;11.066;2024-03-29T06:33:01;9.10;99.90
23347;DHT22;36852;45.466;11.066;2024-03-29T06:35:31;9.20;99.90
23347;DHT22;36852;45.466;11.066;2024-03-29T06:37:59;9.30;99.90
23347;DHT22;36852;45.466;11.066;2024-03-29T06:40:28;9.40;99.90
23347;DHT22;36852;45.466;11.066;2024-03-29T06:43:02;9.40;99.90
23347;DHT22;36852;45.466;11.066;2024-03-29T06:45:50;9.40;99.90
23347;DHT22;36852;45.466;11.066;2024-03-29T06:48:38;9.40;99.90
23347;DHT22;36852;45.466;11.066;2024-03-29T06:51:31;9.40;99.90
23347;DHT22;36852;45.466;11.066;2024-03-29T06:53:59;9.50;99.90
23347;DHT22;36852;45.466;11.066;2024-03-29T06:56:32;9.60;99.90
23347;DHT22;36852;45.466;11.066;2024-03-29T06:59:02;9.70;99.90
23347;DHT22;36852;45.466;11.066;2024-03-29T07:01:39;9.70;99.90
23347;DHT22;36852;45.466;11.066;2024-03-29T07:04:09;9.80;99.90
23347;DHT22;36852;45.466;11.066;2024-03-29T07:06:41;9.80;99.90
23347;DHT22;36852;45.466;11.066;2024-03-29T07:09:16;9.90;99.90
23347;DHT22;36852;45.466;11.066;2024-03-29T07:12:00;9.90;99.90
23347;DHT22;36852;45.466;11.066;2024-03-29T07:14:44;10.00;99.90
23347;DHT22;36852;45.466;11.066;2024-03-29T07:17:17;10.20;99.90
23347;DHT22;36852;45.466;11.066;2024-03-29T07:20:10;10.40;99.90
23347;DHT22;36852;45.466;11.066;2024-03-29T07:22:57;10.50;99.90
23347;DHT22;36852;45.466;11.066;2024-03-29T07:25:25;10.70;99.90
23347;DHT22;36852;45.466;11.066;2024-03-29T07:27:57;10.80;99.90
23347;DHT22;36852;45.466;11.066;2024-03-29T07:30:36;10.90;99.90
23347;DHT22;36852;45.466;11.066;2024-03-29T07:33:35;10.90;99.90
23347;DHT22;36852;45.466;11.066;2024-03-29T07:36:38;11.00;99.90
23347;DHT22;36852;45.466;11.066;2024-03-29T07:39:31;11.10;99.90
23347;DHT22;36852;45.466;11.066;2024-03-29T07:42:18;11.20;99.90
23347;DHT22;36852;45.466;11.066;2024-03-29T07:45:04;11.40;99.90
23347;DHT22;36852;45.466;11.066;2024-03-29T07:47:57;11.50;99.90
23347;DHT22;36852;45.466;11.066;2024-03-29T07:50:35;11.70;99.90
23347;DHT22;36852;45.466;11.066;2024-03-29T07:53:26;11.80;99.90
23347;DHT22;36852;45.466;11.066;2024-03-29T07:56:30;12.00;99.90
23347;DHT22;36852;45.466;11.066;2024-03-29T07:59:20;12.10;99.90
23347;DHT22;36852;45.466;11.066;2024-03-29T08:01:53;12.20;99.90
23347;DHT22;36852;45.466;11.066;2024-03-29T08:04:47;12.30;99.90
23347;DHT22;36852;45.466;11.066;2024-03-29T08:11:28;12.40;99.90
23347;DHT22;36852;45.466;11.066;2024-03-29T08:14:28;12.50;99.90
23347;DHT22;36852;45.466;11.066;2024-03-29T08:20:27;12.60;99.90
23347;DHT22;36852;45.466;11.066;2024-03-29T08:23:23;12.60;99.90
23347;DHT22;36852;45.466;11.066;2024-03-29T08:33:13;12.90;99.90
23347;DHT22;36852;45.466;11.066;2024-03-29T08:40:02;13.00;99.90
23347;DHT22;36852;45.466;11.066;2024-03-29T08:46:32;13.20;99.90
23347;DHT22;36852;45.466;11.066;2024-03-29T08:49:25;13.30;99.90
23347;DHT22;36852;45.466;11.066;2024-03-29T08:52:39;13.40;99.90
23347;DHT22;36852;45.466;11.066;2024-03-29T08:55:24;13.50;99.90
23347;DHT22;36852;45.466;11.066;2024-03-29T08:57:54;13.70;99.90
23347;DHT22;36852;45.466;11.066;2024-03-29T09:00:40;13.80;99.90
23347;DHT22;36852;45.466;11.066;2024-03-29T09:03:30;13.90;99.90
23347;DHT22;36852;45.466;11.066;2024-03-29T09:09:13;14.30;99.90
23347;DHT22;36852;45.466;11.066;2024-03-29T09:11:42;14.60;99.90
23347;DHT22;36852;45.466;11.066;2024-03-29T09:14:11;14.80;99.90
23347;DHT22;36852;45.466;11.066;2024-03-29T09:16:40;14.90;99.90
23347;DHT22;36852;45.466;11.066;2024-03-29T09:19:09;15.10;99.90
23347;DHT22;36852;45.466;11.066;2024-03-29T09:21:37;15.30;99.90
23347;DHT22;36852;45.466;11.066;2024-03-29T09:24:09;15.50;99.90
23347;DHT22;36852;45.466;11.066;2024-03-29T09:26:39;15.80;99.90
23347;DHT22;36852;45.466;11.066;2024-03-29T09:29:11;16.10;99.90
23347;DHT22;36852;45.466;11.066;2024-03-29T09:31:41;16.40;99.90
23347;DHT22;36852;45.466;11.066;2024-03-29T09:34:17;16.60;99.90
23347;DHT22;36852;45.466;11.066;2024-03-29T09:36:57;16.80;99.90
23347;DHT22;36852;45.466;11.066;2024-03-29T09:39:52;16.90;99.90
23347;DHT22;36852;45.466;11.066;2024-03-29T09:42:34;16.90;99.90
23347;DHT22;36852;45.466;11.066;2024-03-29T09:45:37;16.80;99.90
23347;DHT22;36852;45.466;11.066;2024-03-29T09:48:22;17.00;99.90
23347;DHT22;36852;45.466;11.066;2024-03-29T09:51:19;17.30;99.90
23347;DHT22;36852;45.466;11.066;2024-03-29T09:54:14;17.70;99.90
23347;DHT22;36852;45.466;11.066;2024-03-29T09:56:43;17.90;99.90
23347;DHT22;36852;45.466;11.066;2024-03-29T09:59:13;18.20;99.90
23347;DHT22;36852;45.466;11.066;2024-03-29T10:01:41;18.50;99.90
23347;DHT22;36852;45.466;11.066;2024-03-29T10:04:09;18.70;99.90
23347;DHT22;36852;45.466;11.066;2024-03-29T10:06:40;18.80;99.90
23347;DHT22;36852;45.466;11.066;2024-03-29T10:09:11;19.00;99.90
23347;DHT22;36852;45.466;11.066;2024-03-29T10:11:40;18.80;99.90
23347;DHT22;36852;45.466;11.066;2024-03-29T10:14:08;18.60;99.90
23347;DHT22;36852;45.466;11.066;2024-03-29T10:16:36;18.40;99.90
23347;DHT22;36852;45.466;11.066;2024-03-29T10:19:05;18.30;99.90
23347;DHT22;36852;45.466;11.066;2024-03-29T10:21:34;18.50;99.90
23347;DHT22;36852;45.466;11.066;2024-03-29T10:24:15;18.30;99.90
23347;DHT22;36852;45.466;11.066;2024-03-29T10:26:45;18.30;99.90
23347;DHT22;36852;45.466;11.066;2024-03-29T10:29:14;18.20;99.90
23347;DHT22;36852;45.466;11.066;2024-03-29T10:31:42;18.00;99.90
23347;DHT22;36852;45.466;11.066;2024-03-29T10:34:10;17.80;99.90
23347;DHT22;36852;45.466;11.066;2024-03-29T10:36:58;17.40;99.90
23347;DHT22;36852;45.466;11.066;2024-03-29T10:39:26;17.30;99.90
23347;DHT22;36852;45.466;11.066;2024-03-29T10:41:58;17.30;99.90
23347;DHT22;36852;45.466;11.066;2024-03-29T10:44:27;17.30;99.90
23347;DHT22;36852;45.466;11.066;2024-03-29T10:46:58;17.40;99.90
23347;DHT22;36852;45.466;11.066;2024-03-29T10:49:32;17.40;99.90
23347;DHT22;36852;45.466;11.066;2024-03-29T10:52:03;17.40;99.90
23347;DHT22;36852;45.466;11.066;2024-03-29T10:54:34;17.30;99.90
23347;DHT22;36852;45.466;11.066;2024-03-29T10:57:16;17.00;99.90
23347;DHT22;36852;45.466;11.066;2024-03-29T11:25:40;18.00;99.90
23347;DHT22;36852;45.466;11.066;2024-03-29T11:28:36;17.90;99.90
23347;DHT22;36852;45.466;11.066;2024-03-29T11:31:48;17.90;99.90
23347;DHT22;36852;45.466;11.066;2024-03-29T11:41:14;17.70;99.90
23347;DHT22;36852;45.466;11.066;2024-03-29T11:44:16;17.70;99.90
23347;DHT22;36852;45.466;11.066;2024-03-29T11:46:47;17.80;99.90
23347;DHT22;36852;45.466;11.066;2024-03-29T11:49:17;17.80;99.90
23347;DHT22;36852;45.466;11.066;2024-03-29T11:54:51;17.90;99.90
23347;DHT22;36852;45.466;11.066;2024-03-29T11:57:50;17.90;99.90
23347;DHT22;36852;45.466;11.066;2024-03-29T12:00:48;17.50;99.90
23347;DHT22;36852;45.466;11.066;2024-03-29T12:07:12;17.60;99.90
23347;DHT22;36852;45.466;11.066;2024-03-29T12:10:06;17.70;99.90
23347;DHT22;36852;45.466;11.066;2024-03-29T12:12:57;17.90;99.90
23347;DHT22;36852;45.466;11.066;2024-03-29T12:16:07;18.20;99.90
23347;DHT22;36852;45.466;11.066;2024-03-29T12:19:21;18.20;99.90
23347;DHT22;36852;45.466;11.066;2024-03-29T12:22:25;18.10;99.90
23347;DHT22;36852;45.466;11.066;2024-03-29T12:28:34;18.00;99.90
23347;DHT22;36852;45.466;11.066;2024-03-29T12:51:40;18.40;99.90
23347;DHT22;36852;45.466;11.066;2024-03-29T12:54:11;18.10;99.90
23347;DHT22;36852;45.466;11.066;2024-03-29T12:56:41;17.90;99.90
23347;DHT22;36852;45.466;11.066;2024-03-29T12:59:10;17.80;99.90
23347;DHT22;36852;45.466;11.066;2024-03-29T13:01:38;17.80;99.90
23347;DHT22;36852;45.466;11.066;2024-03-29T13:13:17;18.10;99.90
23347;DHT22;36852;45.466;11.066;2024-03-29T13:15:46;18.30;99.90
23347;DHT22;36852;45.466;11.066;2024-03-29T13:18:14;18.30;99.90
23347;DHT22;36852;45.466;11.066;2024-03-29T13:20:44;18.30;99.90
23347;DHT22;36852;45.466;11.066;2024-03-29T13:23:15;18.40;99.90
23347;DHT22;36852;45.466;11.066;2024-03-29T13:25:44;18.50;99.90
23347;DHT22;36852;45.466;11.066;2024-03-29T13:28:12;18.50;99.90
23347;DHT22;36852;45.466;11.066;2024-03-29T13:30:45;18.60;99.90
23347;DHT22;36852;45.466;11.066;2024-03-29T13:33:15;18.60;99.90
23347;DHT22;36852;45.466;11.066;2024-03-29T13:35:44;18.60;99.90
23347;DHT22;36852;45.466;11.066;2024-03-29T13:38:16;18.70;99.90
23347;DHT22;36852;45.466;11.066;2024-03-29T13:40:45;18.80;99.90
23347;DHT22;36852;45.466;11.066;2024-03-29T13:43:15;18.90;99.90
23347;DHT22;36852;45.466;11.066;2024-03-29T13:45:43;18.70;99.90
23347;DHT22;36852;45.466;11.066;2024-03-29T13:48:13;18.70;99.90
23347;DHT22;36852;45.466;11.066;2024-03-29T13:50:42;18.70;99.90
23347;DHT22;36852;45.466;11.066;2024-03-29T13:59:46;18.50;99.90
23347;DHT22;36852;45.466;11.066;2024-03-29T14:03:05;18.60;99.90
23347;DHT22;36852;45.466;11.066;2024-03-29T14:15:47;19.10;99.90
23347;DHT22;36852;45.466;11.066;2024-03-29T14:27:31;19.50;99.90
23347;DHT22;36852;45.466;11.066;2024-03-29T14:30:06;19.50;99.90
23347;DHT22;36852;45.466;11.066;2024-03-29T14:32:47;19.40;99.90
23347;DHT22;36852;45.466;11.066;2024-03-29T14:35:35;19.50;99.90
23347;DHT22;36852;45.466;11.066;2024-03-29T14:38:04;19.40;99.90
23347;DHT22;36852;45.466;11.066;2024-03-29T14:40:33;19.40;99.90
23347;DHT22;36852;45.466;11.066;2024-03-29T14:43:03;19.30;99.90
23347;DHT22;36852;45.466;11.066;2024-03-29T14:45:34;19.30;99.90
23347;DHT22;36852;45.466;11.066;2024-03-29T14:48:05;19.30;99.90
23347;DHT22;36852;45.466;11.066;2024-03-29T14:50:40;19.30;99.90
23347;DHT22;36852;45.466;11.066;2024-03-29T14:53:14;19.20;99.90
23347;DHT22;36852;45.466;11.066;2024-03-29T14:55:48;19.20;99.90
23347;DHT22;36852;45.466;11.066;2024-03-29T14:58:42;19.20;99.90
23347;DHT22;36852;45.466;11.066;2024-03-29T15:04:28;19.20;99.90
23347;DHT22;36852;45.466;11.066;2024-03-29T15:09:56;19.10;99.90
23347;DHT22;36852;45.466;11.066;2024-03-29T15:12:25;19.10;99.90
23347;DHT22;36852;45.466;11.066;2024-03-29T15:14:53;19.10;99.90
23347;DHT22;36852;45.466;11.066;2024-03-29T15:17:22;19.10;99.90
23347;DHT22;36852;45.466;11.066;2024-03-29T15:19:52;19.20;99.90
23347;DHT22;36852;45.466;11.066;2024-03-29T15:22:20;19.20;99.90
23347;DHT22;36852;45.466;11.066;2024-03-29T15:24:48;19.20;99.90
23347;DHT22;36852;45.466;11.066;2024-03-29T15:27:17;19.20;99.90
23347;DHT22;36852;45.466;11.066;2024-03-29T15:29:58;19.10;99.90
23347;DHT22;36852;45.466;11.066;2024-03-29T15:32:31;19.00;99.90
23347;DHT22;36852;45.466;11.066;2024-03-29T15:35:07;18.90;99.90
23347;DHT22;36852;45.466;11.066;2024-03-29T15:37:42;18.80;99.90
23347;DHT22;36852;45.466;11.066;2024-03-29T15:40:15;18.80;99.90
23347;DHT22;36852;45.466;11.066;2024-03-29T15:42:47;18.70;99.90
23347;DHT22;36852;45.466;11.066;2024-03-29T15:45:18;18.70;99.90
23347;DHT22;36852;45.466;11.066;2024-03-29T15:47:53;18.70;99.90
23347;DHT22;36852;45.466;11.066;2024-03-29T15:50:26;18.70;99.90
23347;DHT22;36852;45.466;11.066;2024-03-29T15:52:59;18.70;99.90
23347;DHT22;36852;45.466;11.066;2024-03-29T15:55:30;18.70;99.90
23347;DHT22;36852;45.466;11.066;2024-03-29T15:58:01;18.70;99.90
23347;DHT22;36852;45.466;11.066;2024-03-29T16:00:34;18.60;99.90
23347;DHT22;36852;45.466;11.066;2024-03-29T16:03:07;18.50;99.90
23347;DHT22;36852;45.466;11.066;2024-03-29T16:05:44;18.40;99.90
23347;DHT22;36852;45.466;11.066;2024-03-29T16:08:17;18.30;99.90
23347;DHT22;36852;45.466;11.066;2024-03-29T16:10:59;18.20;99.90
23347;DHT22;36852;45.466;11.066;2024-03-29T16:13:32;18.00;99.90
23347;DHT22;36852;45.466;11.066;2024-03-29T16:16:04;17.80;99.90
23347;DHT22;36852;45.466;11.066;2024-03-29T16:18:34;17.80;99.90
23347;DHT22;36852;45.466;11.066;2024-03-29T16:21:05;17.70;99.90
23347;DHT22;36852;45.466;11.066;2024-03-29T16:23:37;17.70;99.90
23347;DHT22;36852;45.466;11.066;2024-03-29T16:26:10;17.60;99.90
23347;DHT22;36852;45.466;11.066;2024-03-29T16:28:41;17.60;99.90
23347;DHT22;36852;45.466;11.066;2024-03-29T16:31:11;17.50;99.90
23347;DHT22;36852;45.466;11.066;2024-03-29T16:33:41;17.30;99.90
23347;DHT22;36852;45.466;11.066;2024-03-29T16:36:11;17.20;99.90
23347;DHT22;36852;45.466;11.066;2024-03-29T16:38:40;17.20;99.90
23347;DHT22;36852;45.466;11.066;2024-03-29T16:41:09;17.10;99.90
23347;DHT22;36852;45.466;11.066;2024-03-29T16:43:39;17.10;99.90
23347;DHT22;36852;45.466;11.066;2024-03-29T16:46:10;17.00;99.90
23347;DHT22;36852;45.466;11.066;2024-03-29T16:48:41;17.00;99.90
23347;DHT22;36852;45.466;11.066;2024-03-29T16:51:11;17.10;99.90
23347;DHT22;36852;45.466;11.066;2024-03-29T16:53:41;17.10;99.90
23347;DHT22;36852;45.466;11.066;2024-03-29T16:56:13;17.10;99.90
23347;DHT22;36852;45.466;11.066;2024-03-29T16:58:42;17.10;99.90
23347;DHT22;36852;45.466;11.066;2024-03-29T17:01:12;17.10;99.90
23347;DHT22;36852;45.466;11.066;2024-03-29T17:03:43;17.10;99.90
23347;DHT22;36852;45.466;11.066;2024-03-29T17:06:14;17.10;99.90
23347;DHT22;36852;45.466;11.066;2024-03-29T17:08:44;17.10;99.90
23347;DHT22;36852;45.466;11.066;2024-03-29T17:11:14;17.00;99.90
23347;DHT22;36852;45.466;11.066;2024-03-29T17:13:44;16.90;99.90
23347;DHT22;36852;45.466;11.066;2024-03-29T17:16:15;16.70;99.90
23347;DHT22;36852;45.466;11.066;2024-03-29T17:18:44;16.70;99.90
23347;DHT22;36852;45.466;11.066;2024-03-29T17:21:13;16.60;99.90
23347;DHT22;36852;45.466;11.066;2024-03-29T17:23:42;16.50;99.90
23347;DHT22;36852;45.466;11.066;2024-03-29T17:26:12;16.50;99.90
23347;DHT22;36852;45.466;11.066;2024-03-29T17:28:42;16.50;99.90
23347;DHT22;36852;45.466;11.066;2024-03-29T17:31:12;16.50;99.90
23347;DHT22;36852;45.466;11.066;2024-03-29T17:33:41;16.40;99.90
23347;DHT22;36852;45.466;11.066;2024-03-29T17:36:10;16.40;99.90
23347;DHT22;36852;45.466;11.066;2024-03-29T17:38:39;16.40;99.90
23347;DHT22;36852;45.466;11.066;2024-03-29T17:41:09;16.30;99.90
23347;DHT22;36852;45.466;11.066;2024-03-29T17:43:38;16.40;99.90
23347;DHT22;36852;45.466;11.066;2024-03-29T17:46:08;16.30;99.90
23347;DHT22;36852;45.466;11.066;2024-03-29T17:48:38;16.20;99.90
23347;DHT22;36852;45.466;11.066;2024-03-29T17:51:06;16.20;99.90
23347;DHT22;36852;45.466;11.066;2024-03-29T17:53:35;16.20;99.90
23347;DHT22;36852;45.466;11.066;2024-03-29T17:56:05;16.10;99.90
23347;DHT22;36852;45.466;11.066;2024-03-29T17:58:35;16.10;99.90
23347;DHT22;36852;45.466;11.066;2024-03-29T18:53:34;15.70;99.90
23347;DHT22;36852;45.466;11.066;2024-03-29T18:56:04;15.70;99.90
23347;DHT22;36852;45.466;11.066;2024-03-29T18:58:33;15.70;99.90
23347;DHT22;36852;45.466;11.066;2024-03-29T19:01:01;15.80;99.90
23347;DHT22;36852;45.466;11.066;2024-03-29T19:03:29;15.80;99.90
23347;DHT22;36852;45.466;11.066;2024-03-29T19:05:58;15.80;99.90
23347;DHT22;36852;45.466;11.066;2024-03-29T19:08:26;15.80;99.90
23347;DHT22;36852;45.466;11.066;2024-03-29T19:10:56;15.80;99.90
23347;DHT22;36852;45.466;11.066;2024-03-29T19:13:25;15.80;99.90
23347;DHT22;36852;45.466;11.066;2024-03-29T20:09:15;16.70;99.90
23347;DHT22;36852;45.466;11.066;2024-03-29T20:11:43;16.70;99.90
23347;DHT22;36852;45.466;11.066;2024-03-29T20:14:11;16.80;99.90
23347;DHT22;36852;45.466;11.066;2024-03-29T20:16:40;16.90;99.90
23347;DHT22;36852;45.466;11.066;2024-03-29T20:19:08;16.90;99.90
23347;DHT22;36852;45.466;11.066;2024-03-29T20:21:38;16.90;99.90
23347;DHT22;36852;45.466;11.066;2024-03-29T20:24:06;16.90;99.90
23347;DHT22;36852;45.466;11.066;2024-03-29T20:26:37;16.90;99.90
23347;DHT22;36852;45.466;11.066;2024-03-29T20:29:27;16.80;99.90
23347;DHT22;36852;45.466;11.066;2024-03-29T20:31:57;16.70;99.90
23347;DHT22;36852;45.466;11.066;2024-03-29T20:34:26;16.70;99.90
23347;DHT22;36852;45.466;11.066;2024-03-29T20:39:46;16.60;99.90
23347;DHT22;36852;45.466;11.066;2024-03-29T20:42:16;16.50;99.90
23347;DHT22;36852;45.466;11.066;2024-03-29T20:44:54;16.40;99.90
23347;DHT22;36852;45.466;11.066;2024-03-29T20:47:23;16.30;99.90
23347;DHT22;36852;45.466;11.066;2024-03-29T20:49:51;16.20;99.90
23347;DHT22;36852;45.466;11.066;2024-03-29T20:55:14;16.10;99.90
23347;DHT22;36852;45.466;11.066;2024-03-29T21:03:33;15.70;99.90
23347;DHT22;36852;45.466;11.066;2024-03-29T21:06:20;15.60;99.90
